createdAt,value
2022-12-01T00:12:57.203Z,16.17
2022-12-01T00:27:58.698Z,16.90
2022-12-01T00:43:00.180Z,14.23
2022-12-01T00:58:01.641Z,14.53
2022-12-01T01:13:03.100Z,12.30
2022-12-01T01:28:04.570Z,13.27
2022-12-01T01:43:06.017Z,12.73
2022-12-01T01:58:07.500Z,12.43
2022-12-01T02:13:08.951Z,11.93
2022-12-01T02:28:10.404Z,12.73
2022-12-01T02:43:11.861Z,11.50
2022-12-01T02:58:13.320Z,11.40
2022-12-01T03:13:14.808Z,11.57
2022-12-01T03:28:23.311Z,10.53
2022-12-01T03:43:24.773Z,11.50
2022-12-01T03:58:26.222Z,11.93
2022-12-01T04:13:27.685Z,12.10
2022-12-01T04:28:29.146Z,11.03
2022-12-01T04:43:30.814Z,12.47
2022-12-01T04:58:32.280Z,11.90
2022-12-01T05:13:33.725Z,12.07
2022-12-01T05:28:35.169Z,13.30
2022-12-01T05:43:36.720Z,18.73
2022-12-01T05:58:38.180Z,14.67
2022-12-01T06:13:39.616Z,12.50
2022-12-01T06:28:41.074Z,14.97
2022-12-01T06:43:42.517Z,15.10
2022-12-01T06:58:43.973Z,13.03
2022-12-01T07:13:47.142Z,12.50
2022-12-01T07:28:48.588Z,13.00
2022-12-01T07:43:50.045Z,13.93
2022-12-01T07:58:51.502Z,20.53
2022-12-01T08:13:52.977Z,18.20
2022-12-01T08:28:54.440Z,18.20
2022-12-01T08:43:58.812Z,19.03
2022-12-01T08:59:00.984Z,17.97
2022-12-01T09:14:02.440Z,17.50
2022-12-01T09:29:03.892Z,16.83
2022-12-01T09:44:05.328Z,16.27
2022-12-01T09:59:06.788Z,17.87
2022-12-01T10:14:08.254Z,18.53
2022-12-01T10:29:09.701Z,17.40
2022-12-01T10:44:11.152Z,17.27
2022-12-01T10:59:12.634Z,17.67
2022-12-01T11:14:14.096Z,18.93
2022-12-01T11:29:15.581Z,16.57
2022-12-01T11:44:43.206Z,17.83
2022-12-01T11:59:38.493Z,16.00
2022-12-01T12:14:39.946Z,18.80
2022-12-01T12:29:41.397Z,19.87
2022-12-01T12:44:44.114Z,16.80
2022-12-01T12:59:45.619Z,16.70
2022-12-01T13:14:47.089Z,16.33
2022-12-01T13:29:48.733Z,15.73
2022-12-01T13:44:50.523Z,18.73
2022-12-01T13:59:52.305Z,16.57
2022-12-01T14:14:54.158Z,18.57
2022-12-01T14:29:55.752Z,16.27
2022-12-01T14:44:57.269Z,17.83
2022-12-01T14:59:58.747Z,21.20
2022-12-01T15:15:00.199Z,22.97
2022-12-01T15:30:01.662Z,19.03
2022-12-01T15:45:03.333Z,19.10
2022-12-01T16:00:04.907Z,18.73
2022-12-01T16:15:06.369Z,19.00
2022-12-01T16:30:07.834Z,14.37
2022-12-01T16:45:09.299Z,15.17
2022-12-01T17:00:10.764Z,15.57
2022-12-01T17:15:12.217Z,14.07
2022-12-01T17:30:13.715Z,15.73
2022-12-01T17:45:15.182Z,16.67
2022-12-01T18:15:42.397Z,19.20
2022-12-01T18:30:43.882Z,19.33
2022-12-01T18:45:45.347Z,17.27
2022-12-01T19:00:46.840Z,18.90
2022-12-01T20:17:32.409Z,16.87
2022-12-01T20:32:33.865Z,18.20
2022-12-01T20:47:35.313Z,17.63
2022-12-01T21:02:36.819Z,18.67
2022-12-01T21:17:38.358Z,15.40
2022-12-01T21:32:43.730Z,17.27
2022-12-01T21:47:45.695Z,18.03
2022-12-01T22:02:47.267Z,19.77
2022-12-01T22:17:48.786Z,19.23
2022-12-01T22:32:50.247Z,19.40
2022-12-01T22:47:51.706Z,19.30
2022-12-01T23:02:53.238Z,19.90
2022-12-01T23:17:54.712Z,21.33
2022-12-01T23:32:56.162Z,18.57
2022-12-01T23:47:57.617Z,19.13
